Birsay, Canada
Current Conditions -  °F | °C
As of 11:54 AM on Monday 24 Nov 2014 (Local Time) from CYYN Reporting Station
Light Snow Light Snow  
Wind Chill: 11°   Ceiling: 800
Heat Index: 25°   Visibility: 2mi
Dew Point: 23°   Wind: 17mph
Humidity: 93%   Direction: 260°W
Pressure: 29.92"   Gusts: 24mph
Location:  51.1°N, 106.98°W
Report Text: CYYN 241754Z AUTO 26015G21KT 2SM -SN OVC008 M04/M05 A2992 RMK SLP178
Loading
Personal Weather Stations






























Interactive Weather Map New forecast layout! Learn more

10-Day Weather Forecast

Advertisements
Track Severe Weather on mobile